createdAt,value
2019-01-06T00:01:01.443Z,102815.96
2019-01-06T00:02:20.162Z,102812.41
2019-01-06T00:03:58.933Z,102811.96
2019-01-06T00:05:21.412Z,102811.92
2019-01-06T00:06:45.584Z,102811.55
2019-01-06T00:08:01.390Z,102813.73
2019-01-06T00:09:26.331Z,102811.50
2019-01-06T00:10:48.996Z,102811.92
2019-01-06T00:12:23.643Z,102810.56
2019-01-06T00:13:52.961Z,102811.43
2019-01-06T00:15:16.910Z,102807.84
2019-01-06T00:16:41.114Z,102807.81
2019-01-06T00:18:04.366Z,102813.09
2019-01-06T00:19:28.349Z,102811.25
2019-01-06T00:20:59.787Z,102811.21
2019-01-06T00:22:27.444Z,102812.46
2019-01-06T00:23:49.770Z,102812.08
2019-01-06T00:25:13.963Z,102814.41
2019-01-06T00:26:36.563Z,102807.50
2019-01-06T00:27:59.317Z,102810.60
2019-01-06T00:29:27.354Z,102810.14
2019-01-06T00:30:59.058Z,102800.03
2019-01-06T00:32:19.569Z,102803.55
2019-01-06T00:33:49.493Z,102805.36
2019-01-06T00:35:28.631Z,102810.64
2019-01-06T00:36:51.568Z,102806.72
2019-01-06T00:38:01.702Z,102811.69
2019-01-06T00:39:24.862Z,102810.97
2019-01-06T00:40:42.347Z,102815.41
2019-01-06T00:42:11.647Z,102820.80
2019-01-06T00:43:42.475Z,102819.55
2019-01-06T00:45:09.710Z,102824.00
2019-01-06T00:46:39.418Z,102825.39
2019-01-06T00:48:02.393Z,102828.94
2019-01-06T00:49:29.745Z,102831.16
2019-01-06T00:51:02.817Z,102828.14
2019-01-06T00:52:32.601Z,102817.66
2019-01-06T00:53:55.101Z,102820.36
2019-01-06T00:55:28.986Z,102829.53
2019-01-06T00:56:51.724Z,102823.87
2019-01-06T00:58:14.341Z,102825.98
2019-01-06T00:59:33.244Z,102821.54
2019-01-06T01:00:46.856Z,102826.82
2019-01-06T01:02:13.863Z,102829.46
2019-01-06T01:03:36.568Z,102821.05
2019-01-06T01:04:59.000Z,102830.67
2019-01-06T01:06:21.593Z,102821.33
2019-01-06T01:07:44.023Z,102822.58
2019-01-06T01:09:19.256Z,102822.13
2019-01-06T01:10:46.278Z,102835.64
2019-01-06T01:12:25.707Z,102832.09
2019-01-06T01:13:45.770Z,102831.67
2019-01-06T01:15:07.060Z,102832.16
2019-01-06T01:16:29.541Z,102829.14
2019-01-06T01:17:52.410Z,102833.10
2019-01-06T01:19:20.616Z,102844.57
2019-01-06T01:20:56.241Z,102841.13
2019-01-06T01:22:17.551Z,102840.27
2019-01-06T01:23:41.573Z,102844.57
2019-01-06T01:25:07.033Z,102847.52
2019-01-06T01:26:32.827Z,102848.84
2019-01-06T01:28:02.791Z,102834.77
2019-01-06T01:29:38.811Z,102836.09
2019-01-06T01:31:02.752Z,102838.73
2019-01-06T01:32:25.572Z,102845.33
2019-01-06T01:33:49.588Z,102844.88
2019-01-06T01:35:10.169Z,102840.84
2019-01-06T01:36:33.191Z,102849.30
2019-01-06T01:38:09.288Z,102854.92
2019-01-06T01:39:51.309Z,102851.79
2019-01-06T01:41:11.322Z,102863.78
2019-01-06T01:42:31.707Z,102858.19
2019-01-06T01:43:49.077Z,102850.37
2019-01-06T01:45:17.151Z,102848.33
2019-01-06T01:46:40.339Z,102852.84
2019-01-06T01:48:16.575Z,102853.81
2019-01-06T01:49:39.624Z,102854.78
2019-01-06T01:51:04.599Z,102854.92
2019-01-06T01:52:40.531Z,102857.56
2019-01-06T01:54:03.659Z,102866.80
2019-01-06T01:55:27.586Z,102856.80
2019-01-06T01:56:50.264Z,102857.73
2019-01-06T01:58:12.871Z,102853.39
2019-01-06T01:59:25.562Z,102853.91
2019-01-06T02:00:47.928Z,102856.55
2019-01-06T02:02:10.731Z,102854.33
2019-01-06T02:03:33.047Z,102852.59
2019-01-06T02:04:55.756Z,102861.41
2019-01-06T02:06:38.226Z,102854.43
2019-01-06T02:08:05.996Z,102861.83
2019-01-06T02:09:24.354Z,102862.28
2019-01-06T02:10:54.175Z,102856.23
2019-01-06T02:12:24.612Z,102856.75
2019-01-06T02:13:53.709Z,102861.27
2019-01-06T02:15:26.462Z,102851.61
2019-01-06T02:16:49.068Z,102851.16
2019-01-06T02:18:22.549Z,102848.59
2019-01-06T02:19:45.300Z,102849.91
2019-01-06T02:21:08.046Z,102853.00
2019-01-06T02:22:33.279Z,102852.16
2019-01-06T02:23:53.359Z,102852.16
2019-01-06T02:25:14.722Z,102852.16
2019-01-06T02:26:36.617Z,102851.67
2019-01-06T02:27:58.980Z,102859.08
2019-01-06T02:29:14.541Z,102845.95
2019-01-06T02:30:50.919Z,102848.52
2019-01-06T02:32:13.236Z,102854.63
2019-01-06T02:33:49.151Z,102852.89
2019-01-06T02:35:11.624Z,102851.99
2019-01-06T02:36:44.598Z,102851.58
2019-01-06T02:38:20.650Z,102853.31
2019-01-06T02:39:47.158Z,102853.70
2019-01-06T02:41:09.555Z,102850.58
2019-01-06T02:42:45.264Z,102856.23
2019-01-06T02:44:12.762Z,102856.23
2019-01-06T02:45:35.395Z,102851.41
2019-01-06T02:46:59.307Z,102847.97
2019-01-06T02:48:23.453Z,102849.70
2019-01-06T02:49:45.920Z,102852.73
2019-01-06T02:51:24.755Z,102847.83
2019-01-06T02:53:03.624Z,102853.01
2019-01-06T02:54:26.159Z,102849.05
2019-01-06T02:55:48.571Z,102841.62
2019-01-06T02:57:18.533Z,102845.19
2019-01-06T02:58:42.798Z,102843.55
2019-01-06T03:00:08.679Z,102842.66
2019-01-06T03:01:38.597Z,102851.47
2019-01-06T03:03:01.402Z,102845.39
2019-01-06T03:04:23.803Z,102843.97
2019-01-06T03:05:47.767Z,102846.89
2019-01-06T03:07:10.227Z,102844.67
2019-01-06T03:08:43.227Z,102841.16
2019-01-06T03:10:05.689Z,102847.66
2019-01-06T03:11:28.430Z,102844.98
2019-01-06T03:12:48.799Z,102844.98
2019-01-06T03:14:07.533Z,102844.98
2019-01-06T03:15:39.688Z,102845.38
2019-01-06T03:17:19.072Z,102844.92
2019-01-06T03:18:46.630Z,102842.70
2019-01-06T03:20:09.248Z,102846.63
2019-01-06T03:21:33.274Z,102849.20
2019-01-06T03:22:57.484Z,102843.98
2019-01-06T03:24:31.008Z,102842.70
2019-01-06T03:26:03.957Z,102844.02
2019-01-06T03:27:42.640Z,102844.81
2019-01-06T03:29:09.235Z,102844.02
2019-01-06T03:30:28.464Z,102846.63
2019-01-06T03:31:51.113Z,102847.00
2019-01-06T03:33:06.951Z,102844.36
2019-01-06T03:34:31.029Z,102838.59
2019-01-06T03:36:01.288Z,102833.25
2019-01-06T03:37:23.642Z,102836.76
2019-01-06T03:38:57.253Z,102830.16
2019-01-06T03:40:19.713Z,102831.06
2019-01-06T03:41:34.488Z,102832.00
2019-01-06T03:42:50.799Z,102832.00
2019-01-06T03:44:17.734Z,102830.30
2019-01-06T03:45:41.779Z,102831.16
2019-01-06T03:47:06.430Z,102832.45
2019-01-06T03:48:33.174Z,102828.38
2019-01-06T03:50:01.389Z,102830.58
2019-01-06T03:51:28.100Z,102821.82
2019-01-06T03:52:54.335Z,102822.76
2019-01-06T03:54:32.191Z,102821.44
2019-01-06T03:55:54.572Z,102820.57
2019-01-06T03:57:27.459Z,102822.76
2019-01-06T03:58:49.634Z,102820.50
2019-01-06T04:00:13.611Z,102816.50
2019-01-06T04:01:36.353Z,102825.67
2019-01-06T04:02:52.314Z,102808.52
2019-01-06T04:04:25.811Z,102817.30
2019-01-06T04:05:50.785Z,102814.28
2019-01-06T04:07:21.137Z,102816.92
2019-01-06T04:08:40.582Z,102813.45
2019-01-06T04:10:04.108Z,102812.48
2019-01-06T04:11:33.564Z,102806.30
2019-01-06T04:12:53.962Z,102807.20
2019-01-06T04:14:17.713Z,102801.98
2019-01-06T04:15:40.896Z,102803.76
2019-01-06T04:17:07.873Z,102801.16
2019-01-06T04:18:46.734Z,102799.38
2019-01-06T04:20:22.771Z,102799.80
2019-01-06T04:21:40.562Z,102792.40
2019-01-06T04:23:03.121Z,102802.55
2019-01-06T04:24:26.929Z,102793.23
2019-01-06T04:25:52.127Z,102805.19
2019-01-06T04:27:14.801Z,102795.08
2019-01-06T04:28:38.261Z,102796.47
2019-01-06T04:30:00.301Z,102802.20
2019-01-06T04:31:39.945Z,102801.33
2019-01-06T04:33:07.471Z,102804.84
2019-01-06T04:34:44.609Z,102802.55
2019-01-06T04:36:08.807Z,102801.53
2019-01-06T04:37:45.005Z,102794.00
2019-01-06T04:39:12.412Z,102794.86
2019-01-06T04:40:35.132Z,102798.44
2019-01-06T04:42:05.496Z,102798.44
2019-01-06T04:43:32.408Z,102797.50
2019-01-06T04:44:56.429Z,102789.66
2019-01-06T04:46:17.850Z,102790.14
2019-01-06T04:47:51.166Z,102785.73
2019-01-06T04:49:13.805Z,102792.78
2019-01-06T04:50:36.970Z,102795.42
2019-01-06T04:51:59.561Z,102791.01
2019-01-06T04:53:30.016Z,102785.38
2019-01-06T04:55:02.992Z,102792.40
2019-01-06T04:56:26.962Z,102787.50
2019-01-06T04:57:56.662Z,102790.97
2019-01-06T04:59:20.860Z,102794.86
2019-01-06T05:00:43.724Z,102785.17
2019-01-06T05:02:13.559Z,102783.33
2019-01-06T05:03:49.676Z,102777.14
2019-01-06T05:05:09.441Z,102786.80
2019-01-06T05:06:32.102Z,102787.67
2019-01-06T05:08:01.898Z,102777.97
2019-01-06T05:09:25.586Z,102788.12
2019-01-06T05:10:47.989Z,102775.82
2019-01-06T05:12:07.394Z,102786.34
2019-01-06T05:13:20.084Z,102785.48
2019-01-06T05:14:44.407Z,102787.70
2019-01-06T05:16:09.177Z,102785.97
2019-01-06T05:17:34.869Z,102784.65
2019-01-06T05:18:58.790Z,102779.75
2019-01-06T05:20:21.395Z,102777.00
2019-01-06T05:21:48.170Z,102784.05
2019-01-06T05:23:24.505Z,102784.58
2019-01-06T05:24:46.923Z,102785.48
2019-01-06T05:26:07.026Z,102789.02
2019-01-06T05:27:37.997Z,102789.93
2019-01-06T05:29:00.333Z,102788.72
2019-01-06T05:30:17.499Z,102787.02
2019-01-06T05:31:40.084Z,102795.39
2019-01-06T05:32:57.660Z,102786.59
2019-01-06T05:34:25.016Z,102787.88
2019-01-06T05:35:56.963Z,102786.94
2019-01-06T05:37:23.053Z,102787.39
2019-01-06T05:38:50.191Z,102786.08
2019-01-06T05:40:09.525Z,102789.23
2019-01-06T05:41:24.838Z,102785.69
2019-01-06T05:42:41.421Z,102791.88
2019-01-06T05:44:05.750Z,102791.36
2019-01-06T05:45:35.443Z,102793.89
2019-01-06T05:46:51.972Z,102797.81
2019-01-06T05:48:27.390Z,102799.17
2019-01-06T05:49:49.760Z,102798.27
2019-01-06T05:51:12.060Z,102802.75
2019-01-06T05:52:34.633Z,102798.78
2019-01-06T05:53:56.985Z,102801.36
2019-01-06T05:55:32.815Z,102804.45
2019-01-06T05:56:55.273Z,102797.47
2019-01-06T05:58:11.370Z,102801.91
2019-01-06T05:59:50.708Z,102812.02
2019-01-06T06:01:23.766Z,102810.77
2019-01-06T06:02:48.248Z,102814.28
2019-01-06T06:04:04.342Z,102817.41
2019-01-06T06:05:23.804Z,102820.57
2019-01-06T06:06:39.161Z,102817.17
2019-01-06T06:08:01.669Z,102818.38
2019-01-06T06:09:25.799Z,102824.08
2019-01-06T06:10:55.483Z,102828.94
2019-01-06T06:12:19.533Z,102825.98
2019-01-06T06:13:42.475Z,102826.89
2019-01-06T06:15:21.719Z,102826.51
2019-01-06T06:16:44.442Z,102827.76
2019-01-06T06:18:06.657Z,102828.52
2019-01-06T06:19:25.774Z,102828.04
2019-01-06T06:20:49.696Z,102832.00
2019-01-06T06:22:12.505Z,102835.02
2019-01-06T06:23:28.221Z,102836.34
2019-01-06T06:24:59.669Z,102836.34
2019-01-06T06:26:26.723Z,102838.53
2019-01-06T06:28:02.746Z,102838.95
2019-01-06T06:29:20.786Z,102844.16
2019-01-06T06:30:43.594Z,102843.70
2019-01-06T06:32:06.187Z,102845.48
2019-01-06T06:33:48.167Z,102847.73
2019-01-06T06:35:21.261Z,102843.77
2019-01-06T06:36:47.058Z,102847.31
2019-01-06T06:38:09.855Z,102847.67
2019-01-06T06:39:32.175Z,102845.48
2019-01-06T06:40:56.188Z,102839.40
2019-01-06T06:42:18.866Z,102845.20
2019-01-06T06:43:39.816Z,102838.28
2019-01-06T06:44:56.919Z,102840.09
2019-01-06T06:46:24.381Z,102845.34
2019-01-06T06:47:48.549Z,102843.91
2019-01-06T06:49:06.890Z,102843.81
2019-01-06T06:50:46.194Z,102851.24
2019-01-06T06:52:19.395Z,102848.53
2019-01-06T06:53:41.800Z,102854.58
2019-01-06T06:55:08.697Z,102853.61
2019-01-06T06:56:31.378Z,102853.61
2019-01-06T06:58:38.182Z,102859.76
2019-01-06T07:00:48.671Z,102853.71
2019-01-06T07:03:01.764Z,102851.14
2019-01-06T07:04:25.982Z,102857.67
2019-01-06T07:05:48.687Z,102861.04
2019-01-06T07:07:15.718Z,102862.84
2019-01-06T07:08:48.861Z,102859.82
2019-01-06T07:10:25.051Z,102859.89
2019-01-06T07:11:40.091Z,102856.87
2019-01-06T07:13:06.888Z,102860.37
2019-01-06T07:14:24.239Z,102863.84
2019-01-06T07:15:46.550Z,102863.30
2019-01-06T07:17:37.825Z,102863.68
2019-01-06T07:19:04.881Z,102863.95
2019-01-06T07:20:28.817Z,102877.99
2019-01-06T07:21:54.139Z,102872.75
2019-01-06T07:23:17.301Z,102880.73
2019-01-06T07:24:44.009Z,102879.91
2019-01-06T07:26:16.851Z,102881.74
2019-01-06T07:27:39.532Z,102889.77
2019-01-06T07:28:56.840Z,102887.16
2019-01-06T07:30:19.127Z,102891.98
2019-01-06T07:31:47.196Z,102894.63
2019-01-06T07:33:16.978Z,102901.22
2019-01-06T07:34:59.176Z,102896.46
2019-01-06T07:36:18.765Z,102902.22
2019-01-06T07:37:41.131Z,102900.66
2019-01-06T07:39:14.274Z,102900.30
2019-01-06T07:40:56.353Z,102904.78
2019-01-06T07:42:18.704Z,102909.57
2019-01-06T07:43:54.585Z,102906.58
2019-01-06T07:45:24.390Z,102905.67
2019-01-06T07:46:46.958Z,102903.94
2019-01-06T07:48:23.136Z,102909.67
2019-01-06T07:49:36.289Z,102909.28
2019-01-06T07:50:56.319Z,102908.86
2019-01-06T07:52:26.304Z,102915.39
2019-01-06T07:53:48.817Z,102911.92
2019-01-06T07:55:12.915Z,102914.08
2019-01-06T07:56:31.236Z,102914.95
2019-01-06T07:57:53.867Z,102909.28
2019-01-06T07:59:11.562Z,102911.95
2019-01-06T08:00:33.962Z,102913.82
2019-01-06T08:01:53.373Z,102916.52
2019-01-06T08:03:15.720Z,102911.34
2019-01-06T08:04:38.356Z,102913.50
2019-01-06T08:06:01.008Z,102917.00
2019-01-06T08:07:23.768Z,102917.45
2019-01-06T08:08:58.347Z,102917.36
2019-01-06T08:10:16.449Z,102918.97
2019-01-06T08:11:34.410Z,102924.95
2019-01-06T08:13:01.233Z,102925.80
2019-01-06T08:14:25.490Z,102924.05
2019-01-06T08:15:48.321Z,102924.95
2019-01-06T08:17:18.277Z,102924.09
2019-01-06T08:18:40.680Z,102927.59
2019-01-06T08:20:10.424Z,102927.50
2019-01-06T08:21:46.641Z,102932.30
2019-01-06T08:23:09.015Z,102929.66
2019-01-06T08:24:33.455Z,102936.16
2019-01-06T08:26:09.243Z,102938.70
2019-01-06T08:27:36.854Z,102938.08
2019-01-06T08:28:59.146Z,102937.98
2019-01-06T08:30:29.652Z,102937.53
2019-01-06T08:31:56.665Z,102941.14
2019-01-06T08:33:27.644Z,102945.13
2019-01-06T08:34:50.316Z,102940.38
2019-01-06T08:36:12.502Z,102945.23
2019-01-06T08:37:35.146Z,102944.36
2019-01-06T08:39:14.021Z,102944.33
2019-01-06T08:40:29.918Z,102952.60
2019-01-06T08:41:52.562Z,102950.83
2019-01-06T08:43:22.344Z,102956.53
2019-01-06T08:44:44.024Z,102951.63
2019-01-06T08:46:06.315Z,102956.56
2019-01-06T08:47:29.448Z,102952.60
2019-01-06T08:48:52.088Z,102953.53
2019-01-06T08:50:06.817Z,102955.30
2019-01-06T08:51:45.901Z,102950.03
2019-01-06T08:53:09.845Z,102948.29
2019-01-06T08:54:37.081Z,102953.92
2019-01-06T08:55:58.692Z,102953.53
2019-01-06T08:57:22.638Z,102959.52
2019-01-06T08:58:39.347Z,102954.66
2019-01-06T09:00:06.303Z,102959.88
2019-01-06T09:01:28.918Z,102959.00
2019-01-06T09:03:04.114Z,102952.89
2019-01-06T09:04:32.230Z,102954.95
2019-01-06T09:06:04.597Z,102955.36
2019-01-06T09:07:27.202Z,102958.42
2019-01-06T09:08:51.200Z,102948.28
2019-01-06T09:10:15.165Z,102956.13
2019-01-06T09:11:38.716Z,102955.27
2019-01-06T09:13:07.087Z,102953.49
2019-01-06T09:14:40.625Z,102955.16
2019-01-06T09:16:04.558Z,102958.58
2019-01-06T09:17:27.323Z,102957.22
2019-01-06T09:18:51.413Z,102957.16
2019-01-06T09:20:18.507Z,102961.89
2019-01-06T09:21:38.000Z,102963.20
2019-01-06T09:23:01.872Z,102963.17
2019-01-06T09:24:18.780Z,102966.52
2019-01-06T09:25:41.470Z,102963.77
2019-01-06T09:27:04.044Z,102961.48
2019-01-06T09:28:31.195Z,102961.55
2019-01-06T09:30:06.863Z,102971.63
2019-01-06T09:31:30.565Z,102981.36
2019-01-06T09:32:52.007Z,102976.98
2019-01-06T09:34:21.970Z,102977.39
2019-01-06T09:36:00.464Z,102976.98
2019-01-06T09:37:21.748Z,102976.46
2019-01-06T09:38:44.078Z,102977.67
2019-01-06T09:40:17.985Z,102975.80
2019-01-06T09:41:35.303Z,102981.92
2019-01-06T09:43:02.220Z,102976.57
2019-01-06T09:44:21.164Z,102979.21
2019-01-06T09:45:44.266Z,102981.44
2019-01-06T09:47:05.122Z,102975.80
2019-01-06T09:48:32.147Z,102976.77
2019-01-06T09:50:08.860Z,102979.94
2019-01-06T09:51:38.561Z,102982.58
2019-01-06T09:53:08.278Z,102980.28
2019-01-06T09:54:35.088Z,102970.48
2019-01-06T09:55:57.925Z,102978.63
2019-01-06T09:57:28.087Z,102974.94
2019-01-06T09:58:50.020Z,102980.22
2019-01-06T10:00:18.486Z,102980.64
2019-01-06T10:01:48.522Z,102978.80
2019-01-06T10:03:03.270Z,102980.95
2019-01-06T10:04:35.127Z,102982.77
2019-01-06T10:05:58.507Z,102983.25
2019-01-06T10:07:37.577Z,102978.80
2019-01-06T10:08:55.100Z,102983.07
2019-01-06T10:10:17.945Z,102983.03
2019-01-06T10:11:40.614Z,102987.34
2019-01-06T10:13:03.343Z,102985.13
2019-01-06T10:14:30.290Z,102981.09
2019-01-06T10:15:54.355Z,102979.28
2019-01-06T10:17:16.908Z,102987.66
2019-01-06T10:18:43.786Z,102991.63
2019-01-06T10:20:02.321Z,102987.14
2019-01-06T10:21:31.573Z,102989.78
2019-01-06T10:22:54.427Z,102992.39
2019-01-06T10:24:21.559Z,102994.27
2019-01-06T10:25:48.675Z,102985.13
2019-01-06T10:27:11.446Z,102985.13
2019-01-06T10:28:35.661Z,102984.19
2019-01-06T10:30:00.023Z,102981.05
2019-01-06T10:31:20.631Z,102984.50
2019-01-06T10:32:44.373Z,102982.76
2019-01-06T10:34:03.772Z,102984.08
2019-01-06T10:35:26.478Z,102981.05
2019-01-06T10:36:49.279Z,102985.92
2019-01-06T10:38:12.961Z,102984.08
2019-01-06T10:39:36.908Z,102987.14
2019-01-06T10:41:19.023Z,102980.01
2019-01-06T10:42:36.583Z,102985.71
2019-01-06T10:44:15.463Z,102983.03
2019-01-06T10:45:35.966Z,102979.94
2019-01-06T10:47:08.817Z,102980.66
2019-01-06T10:48:38.264Z,102983.23
2019-01-06T10:49:58.864Z,102979.20
2019-01-06T10:51:37.854Z,102980.86
2019-01-06T10:53:00.470Z,102988.80
2019-01-06T10:54:27.386Z,102986.91
2019-01-06T10:55:58.884Z,102985.90
2019-01-06T10:57:21.595Z,102986.31
2019-01-06T10:58:44.425Z,102989.45
2019-01-06T11:00:09.225Z,102982.04
2019-01-06T11:01:36.500Z,102983.40
2019-01-06T11:03:12.769Z,102989.17
2019-01-06T11:04:39.736Z,102992.66
2019-01-06T11:06:22.020Z,102987.33
2019-01-06T11:07:44.460Z,102989.97
2019-01-06T11:09:09.419Z,102985.94
2019-01-06T11:10:36.131Z,102981.41
2019-01-06T11:11:58.806Z,102983.56
2019-01-06T11:13:21.424Z,102987.45
2019-01-06T11:14:44.045Z,102983.45
2019-01-06T11:16:17.040Z,102986.52
2019-01-06T11:17:52.982Z,102982.89
2019-01-06T11:19:22.782Z,102984.20
2019-01-06T11:20:46.930Z,102981.15
2019-01-06T11:22:09.600Z,102991.27
2019-01-06T11:23:46.080Z,102984.14
2019-01-06T11:25:08.585Z,102986.33
2019-01-06T11:26:37.656Z,102984.14
2019-01-06T11:28:01.962Z,102985.08
2019-01-06T11:29:28.986Z,102989.05
2019-01-06T11:30:51.915Z,102990.75
2019-01-06T11:32:21.635Z,102993.36
2019-01-06T11:33:49.005Z,102998.19
2019-01-06T11:35:06.677Z,102992.03
2019-01-06T11:36:29.080Z,102986.29
2019-01-06T11:37:52.110Z,102989.39
2019-01-06T11:39:18.761Z,102984.14
2019-01-06T11:40:49.537Z,102979.72
2019-01-06T11:42:15.362Z,102981.38
2019-01-06T11:43:37.453Z,102987.50
2019-01-06T11:45:04.415Z,102983.91
2019-01-06T11:46:40.466Z,102981.76
2019-01-06T11:48:02.721Z,102984.78
2019-01-06T11:49:25.404Z,102980.32
2019-01-06T11:50:55.207Z,102977.11
2019-01-06T11:52:35.383Z,102976.59
2019-01-06T11:54:07.191Z,102976.47
2019-01-06T11:55:29.868Z,102976.02
2019-01-06T11:56:54.155Z,102976.47
2019-01-06T11:58:16.660Z,102966.34
2019-01-06T11:59:39.561Z,102973.78
2019-01-06T12:01:06.779Z,102966.30
2019-01-06T12:02:38.776Z,102968.12
2019-01-06T12:03:55.468Z,102971.18
2019-01-06T12:05:20.160Z,102969.81
2019-01-06T12:06:42.757Z,102964.56
2019-01-06T12:08:24.984Z,102966.69
2019-01-06T12:09:50.533Z,102966.23
2019-01-06T12:11:13.551Z,102960.56
2019-01-06T12:12:35.704Z,102959.69
2019-01-06T12:14:02.483Z,102961.92
2019-01-06T12:15:29.414Z,102965.36
2019-01-06T12:16:53.404Z,102960.90
2019-01-06T12:18:16.135Z,102963.43
2019-01-06T12:19:38.773Z,102956.70
2019-01-06T12:21:01.690Z,102958.81
2019-01-06T12:22:42.035Z,102958.44
2019-01-06T12:24:13.086Z,102958.44
2019-01-06T12:25:35.458Z,102959.23
2019-01-06T12:26:59.653Z,102957.00
2019-01-06T12:28:23.748Z,102958.32
2019-01-06T12:29:46.345Z,102955.27
2019-01-06T12:31:16.318Z,102952.61
2019-01-06T12:32:49.310Z,102953.41
2019-01-06T12:34:08.536Z,102952.45
2019-01-06T12:35:34.279Z,102948.48
2019-01-06T12:36:56.950Z,102952.00
2019-01-06T12:38:37.483Z,102953.25
2019-01-06T12:40:19.775Z,102946.59
2019-01-06T12:41:42.179Z,102952.11
2019-01-06T12:43:05.665Z,102949.22
2019-01-06T12:44:35.549Z,102945.25
2019-01-06T12:45:57.886Z,102953.61
2019-01-06T12:47:20.238Z,102940.75
2019-01-06T12:48:39.430Z,102945.92
2019-01-06T12:49:57.625Z,102942.33
2019-01-06T12:51:17.676Z,102942.82
2019-01-06T12:52:44.779Z,102952.09
2019-01-06T12:54:09.130Z,102946.00
2019-01-06T12:55:48.367Z,102947.33
2019-01-06T12:57:12.322Z,102955.19
2019-01-06T12:58:37.081Z,102950.31
2019-01-06T12:59:59.952Z,102949.89
2019-01-06T13:01:39.173Z,102947.33
2019-01-06T13:03:06.283Z,102956.59
2019-01-06T13:04:33.495Z,102951.75
2019-01-06T13:06:01.098Z,102945.66
2019-01-06T13:07:37.279Z,102941.63
2019-01-06T13:09:07.979Z,102953.83
2019-01-06T13:10:30.846Z,102950.72
2019-01-06T13:11:56.869Z,102953.03
2019-01-06T13:13:38.984Z,102950.09
2019-01-06T13:15:01.354Z,102953.31
2019-01-06T13:16:24.041Z,102953.84
2019-01-06T13:17:56.957Z,102952.45
2019-01-06T13:19:18.103Z,102952.52
2019-01-06T13:20:42.451Z,102952.56
2019-01-06T13:22:02.292Z,102953.02
2019-01-06T13:23:24.589Z,102963.15
2019-01-06T13:24:47.022Z,102955.63
2019-01-06T13:26:08.060Z,102953.36
2019-01-06T13:27:35.853Z,102950.21
2019-01-06T13:29:13.631Z,102950.13
2019-01-06T13:30:46.547Z,102952.66
2019-01-06T13:32:10.620Z,102953.95
2019-01-06T13:33:32.785Z,102954.36
2019-01-06T13:34:57.122Z,102954.36
2019-01-06T13:36:19.640Z,102957.91
2019-01-06T13:37:46.086Z,102958.37
2019-01-06T13:39:13.040Z,102956.52
2019-01-06T13:41:02.605Z,102956.88
2019-01-06T13:42:20.617Z,102952.37
2019-01-06T13:43:42.962Z,102958.02
2019-01-06T13:45:10.654Z,102958.37
2019-01-06T13:46:32.376Z,102956.57
2019-01-06T13:47:54.928Z,102963.14
2019-01-06T13:49:29.211Z,102963.55
2019-01-06T13:51:05.515Z,102967.45
2019-01-06T13:52:23.487Z,102968.85
2019-01-06T13:53:47.500Z,102974.27
2019-01-06T13:55:11.538Z,102972.45
2019-01-06T13:56:44.621Z,102978.95
2019-01-06T13:58:06.831Z,102978.50
2019-01-06T13:59:30.943Z,102978.12
2019-01-06T14:01:04.006Z,102979.56
2019-01-06T14:02:26.956Z,102981.38
2019-01-06T14:03:49.015Z,102990.35
2019-01-06T14:05:22.186Z,102984.27
2019-01-06T14:06:54.520Z,102986.12
2019-01-06T14:08:21.477Z,102992.25
2019-01-06T14:09:54.568Z,102981.73
2019-01-06T14:11:33.601Z,102984.91
2019-01-06T14:12:49.393Z,102986.62
2019-01-06T14:14:16.314Z,102984.84
2019-01-06T14:15:43.337Z,102982.72
2019-01-06T14:17:04.317Z,102986.23
2019-01-06T14:18:26.911Z,102988.77
2019-01-06T14:19:44.089Z,102989.97
2019-01-06T14:21:06.397Z,102995.15
2019-01-06T14:22:36.245Z,102993.30
2019-01-06T14:24:06.081Z,102993.18
2019-01-06T14:25:28.554Z,102994.00
2019-01-06T14:26:51.358Z,102997.03
2019-01-06T14:28:18.199Z,102996.91
2019-01-06T14:29:33.686Z,102993.88
2019-01-06T14:30:57.652Z,102996.16
2019-01-06T14:32:40.102Z,102994.12
2019-01-06T14:34:10.862Z,102992.31
2019-01-06T14:35:28.227Z,102998.09
2019-01-06T14:36:47.429Z,102993.30
2019-01-06T14:38:11.435Z,102993.83
2019-01-06T14:39:34.052Z,102990.35
2019-01-06T14:41:01.178Z,102990.43
2019-01-06T14:42:40.063Z,102992.63
2019-01-06T14:44:06.879Z,102985.47
2019-01-06T14:45:38.295Z,102995.15
2019-01-06T14:47:03.430Z,102997.80
2019-01-06T14:48:21.246Z,102991.97
2019-01-06T14:49:57.596Z,102991.93
2019-01-06T14:51:24.350Z,102993.75
2019-01-06T14:52:46.759Z,102998.59
2019-01-06T14:54:09.363Z,103000.45
2019-01-06T14:55:45.359Z,103000.94
2019-01-06T14:57:16.688Z,103004.08
2019-01-06T14:58:49.838Z,103002.91
2019-01-06T15:00:12.356Z,103002.45
2019-01-06T15:01:45.531Z,103008.63
2019-01-06T15:03:07.993Z,103012.18
2019-01-06T15:04:30.426Z,103009.53
2019-01-06T15:05:53.064Z,103011.77
2019-01-06T15:07:21.687Z,103007.41
2019-01-06T15:08:56.299Z,103008.20
2019-01-06T15:10:29.155Z,103003.78
2019-01-06T15:11:58.973Z,103009.95
2019-01-06T15:13:21.445Z,103008.20
2019-01-06T15:14:43.740Z,103009.45
2019-01-06T15:16:13.740Z,103008.96
2019-01-06T15:17:52.917Z,103011.65
2019-01-06T15:19:22.685Z,103011.20
2019-01-06T15:20:52.622Z,103009.95
2019-01-06T15:22:15.224Z,103010.44
2019-01-06T15:23:39.031Z,103010.44
2019-01-06T15:24:58.567Z,103009.77
2019-01-06T15:26:28.838Z,103012.91
2019-01-06T15:27:51.406Z,103010.79
2019-01-06T15:29:20.442Z,103009.13
2019-01-06T15:30:55.718Z,103010.94
2019-01-06T15:32:16.105Z,103006.25
2019-01-06T15:33:34.124Z,103007.05
2019-01-06T15:35:01.866Z,103011.06
2019-01-06T15:36:24.643Z,103007.16
2019-01-06T15:37:46.753Z,103012.04
2019-01-06T15:39:06.018Z,103010.79
2019-01-06T15:40:28.764Z,103012.61
2019-01-06T15:41:55.685Z,103011.73
2019-01-06T15:43:34.734Z,103009.92
2019-01-06T15:44:57.487Z,103016.20
2019-01-06T15:46:24.498Z,103013.17
2019-01-06T15:47:59.476Z,103014.11
2019-01-06T15:49:23.172Z,103013.17
2019-01-06T15:50:46.904Z,103015.33
2019-01-06T15:52:28.958Z,103011.28
2019-01-06T15:53:56.165Z,103015.21
2019-01-06T15:55:29.855Z,103015.59
2019-01-06T15:56:52.507Z,103020.89
2019-01-06T15:58:15.674Z,103017.03
2019-01-06T15:59:48.411Z,103023.64
2019-01-06T16:01:23.290Z,103021.48
2019-01-06T16:02:50.330Z,103015.78
2019-01-06T16:04:14.815Z,103019.78
2019-01-06T16:05:37.241Z,103020.31
2019-01-06T16:06:59.626Z,103023.87
2019-01-06T16:08:23.747Z,103019.52
2019-01-06T16:10:06.132Z,103018.20
2019-01-06T16:11:28.528Z,103020.36
2019-01-06T16:12:51.645Z,103020.42
2019-01-06T16:14:15.215Z,103017.37
2019-01-06T16:15:34.160Z,103016.87
2019-01-06T16:16:56.605Z,103021.64
2019-01-06T16:18:19.175Z,103021.11
2019-01-06T16:19:43.166Z,103024.59
2019-01-06T16:21:00.461Z,103023.27
2019-01-06T16:22:34.473Z,103024.59
2019-01-06T16:24:01.566Z,103021.52